createdAt,value
2022-08-24T00:00:45.135Z,1.25
2022-08-24T00:04:06.894Z,1.38
2022-08-24T00:07:28.747Z,1.20
2022-08-24T00:10:50.671Z,1.00
2022-08-24T00:14:12.538Z,1.40
2022-08-24T00:17:34.336Z,1.60
2022-08-24T00:20:56.665Z,1.58
2022-08-24T00:24:19.451Z,1.30
2022-08-24T00:27:42.360Z,1.48
2022-08-24T00:31:04.715Z,1.50
2022-08-24T00:34:30.098Z,1.83
2022-08-24T00:37:53.513Z,2.17
2022-08-24T00:41:16.591Z,1.38
2022-08-24T00:44:38.504Z,1.25
2022-08-24T00:48:06.581Z,1.00
2022-08-24T00:51:39.631Z,1.42
2022-08-24T00:55:07.711Z,1.00
2022-08-24T00:58:38.464Z,1.40
2022-08-24T01:02:15.152Z,1.17
2022-08-24T01:05:39.120Z,1.25
2022-08-24T01:09:01.325Z,1.73
2022-08-24T01:12:25.185Z,1.17
2022-08-24T01:15:49.462Z,1.35
2022-08-24T01:19:37.256Z,1.00
2022-08-24T01:23:24.027Z,1.10
2022-08-24T01:26:48.576Z,1.13
2022-08-24T01:30:13.912Z,1.40
2022-08-24T01:33:35.921Z,1.20
2022-08-24T01:37:00.097Z,1.17
2022-08-24T01:40:25.979Z,1.30
2022-08-24T01:43:48.049Z,1.00
2022-08-24T01:47:12.000Z,1.27
2022-08-24T01:50:33.979Z,1.50
2022-08-24T01:53:55.869Z,1.13
2022-08-24T01:57:17.964Z,1.00
2022-08-24T02:00:40.682Z,1.52
2022-08-24T02:04:04.745Z,1.25
2022-08-24T02:07:29.609Z,1.92
2022-08-24T02:10:56.505Z,1.45
2022-08-24T02:14:19.743Z,1.25
2022-08-24T02:17:41.508Z,1.20
2022-08-24T02:21:03.699Z,1.33
2022-08-24T02:24:25.471Z,1.23
2022-08-24T02:27:47.311Z,1.17
2022-08-24T02:31:13.202Z,1.17
2022-08-24T02:34:35.136Z,1.10
2022-08-24T02:37:58.015Z,1.30
2022-08-24T02:41:22.269Z,1.30
2022-08-24T02:44:44.199Z,1.52
2022-08-24T02:48:06.713Z,1.38
2022-08-24T02:51:30.944Z,1.52
2022-08-24T02:55:04.318Z,1.30
2022-08-24T02:58:26.194Z,1.35
2022-08-24T03:01:49.760Z,1.05
2022-08-24T03:05:12.557Z,1.30
2022-08-24T03:08:35.799Z,1.42
2022-08-24T03:11:57.873Z,1.65
2022-08-24T03:15:23.837Z,1.33
2022-08-24T03:18:45.793Z,1.30
2022-08-24T03:22:08.758Z,1.48
2022-08-24T03:25:31.134Z,1.05
2022-08-24T03:28:53.066Z,1.40
2022-08-24T03:32:15.516Z,1.83
2022-08-24T03:35:37.931Z,1.75
2022-08-24T03:38:59.803Z,1.50
2022-08-24T03:42:22.861Z,1.17
2022-08-24T03:45:44.897Z,1.30
2022-08-24T03:49:08.846Z,1.30
2022-08-24T03:52:33.911Z,1.50
2022-08-24T03:55:56.609Z,1.10
2022-08-24T03:59:20.074Z,1.20
2022-08-24T04:02:44.431Z,1.30
2022-08-24T04:06:13.866Z,1.27
2022-08-24T04:09:36.107Z,1.52
2022-08-24T04:12:59.776Z,1.63
2022-08-24T04:16:24.344Z,1.10
2022-08-24T04:19:59.920Z,1.42
2022-08-24T04:23:23.961Z,1.40
2022-08-24T04:27:03.105Z,1.27
2022-08-24T04:30:25.041Z,1.40
2022-08-24T04:34:00.306Z,1.10
2022-08-24T04:37:28.000Z,1.35
2022-08-24T04:40:51.707Z,1.52
2022-08-24T04:44:13.564Z,1.27
2022-08-24T04:47:35.295Z,1.70
2022-08-24T04:51:03.177Z,2.65
2022-08-24T04:54:25.149Z,2.35
2022-08-24T04:58:02.340Z,1.60
2022-08-24T05:01:27.719Z,1.60
2022-08-24T05:04:50.641Z,1.60
2022-08-24T05:08:13.820Z,1.70
2022-08-24T05:11:40.208Z,1.40
2022-08-24T05:15:02.716Z,1.33
2022-08-24T05:18:30.094Z,1.60
2022-08-24T05:21:52.265Z,1.42
2022-08-24T05:25:14.672Z,1.70
2022-08-24T05:28:37.837Z,1.90
2022-08-24T05:31:59.681Z,1.50
2022-08-24T05:35:24.152Z,1.83
2022-08-24T05:38:47.791Z,1.75
2022-08-24T05:42:10.209Z,1.83
2022-08-24T05:45:41.825Z,1.80
2022-08-24T05:49:04.553Z,2.03
2022-08-24T05:52:28.421Z,2.08
2022-08-24T05:55:50.425Z,2.05
2022-08-24T05:59:14.443Z,2.17
2022-08-24T06:02:36.442Z,1.92
2022-08-24T06:05:58.299Z,2.05
2022-08-24T06:09:20.037Z,2.00
2022-08-24T06:12:42.924Z,2.28
2022-08-24T06:16:20.960Z,2.00
2022-08-24T06:19:43.777Z,2.60
2022-08-24T06:23:05.742Z,2.47
2022-08-24T06:26:52.304Z,2.30
2022-08-24T06:30:14.512Z,1.90
2022-08-24T06:33:39.505Z,1.75
2022-08-24T06:37:01.818Z,1.80
2022-08-24T06:40:24.628Z,2.22
2022-08-24T06:43:46.855Z,1.77
2022-08-24T06:47:09.528Z,1.73
2022-08-24T06:50:31.438Z,1.63
2022-08-24T06:53:55.871Z,1.85
2022-08-24T06:57:19.100Z,2.08
2022-08-24T07:00:41.725Z,2.03
2022-08-24T07:04:03.792Z,2.47
2022-08-24T07:08:01.837Z,1.70
2022-08-24T07:11:25.535Z,2.13
2022-08-24T07:14:48.150Z,2.00
2022-08-24T07:18:15.626Z,2.00
2022-08-24T07:21:42.208Z,1.85
2022-08-24T07:25:06.439Z,2.55
2022-08-24T07:28:31.748Z,2.00
2022-08-24T07:31:55.514Z,2.17
2022-08-24T07:35:27.824Z,2.13
2022-08-24T07:38:54.955Z,1.98
2022-08-24T07:42:23.235Z,1.70
2022-08-24T07:45:51.419Z,1.90
2022-08-24T07:49:33.005Z,2.17
2022-08-24T07:52:57.737Z,1.58
2022-08-24T07:56:19.609Z,1.75
2022-08-24T07:59:43.777Z,1.42
2022-08-24T08:03:06.326Z,1.38
2022-08-24T08:06:33.589Z,1.77
2022-08-24T08:09:58.023Z,1.30
2022-08-24T08:13:20.185Z,1.65
2022-08-24T08:16:43.403Z,1.73
2022-08-24T08:20:08.069Z,1.52
2022-08-24T08:23:49.337Z,1.58
2022-08-24T08:27:25.981Z,1.50
2022-08-24T08:30:48.014Z,1.60
2022-08-24T08:34:11.591Z,1.50
2022-08-24T08:37:33.595Z,1.80
2022-08-24T08:41:13.988Z,1.48
2022-08-24T08:45:07.568Z,1.70
2022-08-24T08:49:02.038Z,1.63
2022-08-24T08:53:01.810Z,1.67
2022-08-24T08:56:59.181Z,1.60
2022-08-24T09:00:31.765Z,1.30
2022-08-24T09:04:21.627Z,1.65
2022-08-24T09:08:26.946Z,1.60
2022-08-24T09:12:19.516Z,1.48
2022-08-24T09:16:00.706Z,1.52
2022-08-24T09:20:02.440Z,1.60
2022-08-24T09:23:43.912Z,1.92
2022-08-24T09:27:08.477Z,1.80
2022-08-24T09:30:52.210Z,1.60
2022-08-24T09:34:32.216Z,1.60
2022-08-24T09:38:29.765Z,1.80
2022-08-24T09:42:00.366Z,1.63
2022-08-24T09:45:46.448Z,1.70
2022-08-24T09:49:52.022Z,1.98
2022-08-24T09:53:47.708Z,1.70
2022-08-24T09:57:21.253Z,1.95
2022-08-24T10:01:13.877Z,1.70
2022-08-24T10:04:54.806Z,1.80
2022-08-24T10:08:22.421Z,1.55
2022-08-24T10:12:20.587Z,2.05
2022-08-24T10:16:08.582Z,1.73
2022-08-24T10:19:55.467Z,1.55
2022-08-24T10:23:48.285Z,1.65
2022-08-24T10:27:24.037Z,1.85
2022-08-24T10:31:01.714Z,1.80
2022-08-24T10:34:52.324Z,1.95
2022-08-24T10:38:49.205Z,1.80
2022-08-24T10:42:45.361Z,2.00
2022-08-24T10:46:45.495Z,2.13
2022-08-24T10:50:35.593Z,1.65
2022-08-24T10:53:58.842Z,2.15
2022-08-24T10:58:11.071Z,1.90
2022-08-24T11:01:38.190Z,2.10
2022-08-24T11:05:03.190Z,2.10
2022-08-24T11:08:31.027Z,1.80
2022-08-24T11:11:52.771Z,2.30
2022-08-24T11:15:17.166Z,2.13
2022-08-24T11:18:57.017Z,1.98
2022-08-24T11:22:37.656Z,1.80
2022-08-24T11:26:15.854Z,1.98
2022-08-24T11:29:49.938Z,2.30
2022-08-24T11:33:49.740Z,2.00
2022-08-24T11:37:15.882Z,2.25
2022-08-24T11:40:41.710Z,2.22
2022-08-24T11:44:31.372Z,2.70
2022-08-24T11:48:05.698Z,2.17
2022-08-24T11:51:32.501Z,2.08
2022-08-24T11:55:08.606Z,2.13
2022-08-24T11:58:39.074Z,2.10
2022-08-24T12:02:08.184Z,2.42
2022-08-24T12:06:10.037Z,2.30
2022-08-24T12:09:53.712Z,2.28
2022-08-24T12:13:35.915Z,2.17
2022-08-24T12:17:07.101Z,1.80
2022-08-24T12:20:49.323Z,2.10
2022-08-24T12:24:32.823Z,2.05
2022-08-24T12:27:57.245Z,2.28
2022-08-24T12:31:22.010Z,1.67
2022-08-24T12:35:08.976Z,2.28
2022-08-24T12:38:40.668Z,1.80
2022-08-24T12:42:06.448Z,1.75
2022-08-24T12:45:29.884Z,1.70
2022-08-24T12:48:55.287Z,1.92
2022-08-24T12:52:25.807Z,1.73
2022-08-24T12:55:59.313Z,1.80
2022-08-24T12:59:44.892Z,1.98
2022-08-24T13:03:21.403Z,1.77
2022-08-24T13:06:50.220Z,1.70
2022-08-24T13:10:24.533Z,2.20
2022-08-24T13:14:04.702Z,1.80
2022-08-24T13:17:41.333Z,1.75
2022-08-24T13:21:16.382Z,1.70
2022-08-24T13:24:43.822Z,1.80
2022-08-24T13:28:28.715Z,1.60
2022-08-24T13:31:56.019Z,1.92
2022-08-24T13:35:39.510Z,1.60
2022-08-24T13:39:10.006Z,1.75
2022-08-24T13:42:35.532Z,1.60
2022-08-24T13:46:15.053Z,1.77
2022-08-24T13:49:46.201Z,2.00
2022-08-24T13:53:28.723Z,1.73
2022-08-24T13:57:05.040Z,1.90
2022-08-24T14:00:48.425Z,1.90
2022-08-24T14:04:28.123Z,2.20
2022-08-24T14:08:29.865Z,1.73
2022-08-24T14:11:51.578Z,1.85
2022-08-24T14:15:25.113Z,1.52
2022-08-24T14:18:57.686Z,1.33
2022-08-24T14:22:29.850Z,1.42
2022-08-24T14:26:12.024Z,1.75
2022-08-24T14:29:41.904Z,1.73
2022-08-24T14:33:29.732Z,1.60
2022-08-24T14:37:29.859Z,1.98
2022-08-24T14:41:18.295Z,2.00
2022-08-24T14:45:09.206Z,1.83
2022-08-24T14:48:49.465Z,1.65
2022-08-24T14:52:30.048Z,1.40
2022-08-24T14:56:16.879Z,1.40
2022-08-24T15:00:04.618Z,2.15
2022-08-24T15:03:48.505Z,1.58
2022-08-24T15:07:30.884Z,1.30
2022-08-24T15:11:01.315Z,1.60
2022-08-24T15:14:33.589Z,1.30
2022-08-24T15:18:18.240Z,1.42
2022-08-24T15:21:42.851Z,1.52
2022-08-24T15:25:27.178Z,1.58
2022-08-24T15:28:55.376Z,1.35
2022-08-24T15:32:19.597Z,1.42
2022-08-24T15:35:44.455Z,1.70
2022-08-24T15:39:06.758Z,1.58
2022-08-24T15:42:31.662Z,1.75
2022-08-24T15:45:53.930Z,1.50
2022-08-24T15:49:28.527Z,1.50
2022-08-24T15:52:53.241Z,1.38
2022-08-24T15:56:20.731Z,1.50
2022-08-24T15:59:42.426Z,1.38
2022-08-24T16:03:42.763Z,1.90
2022-08-24T16:07:04.454Z,1.50
2022-08-24T16:10:29.208Z,1.20
2022-08-24T16:13:50.989Z,1.52
2022-08-24T16:17:27.881Z,1.50
2022-08-24T16:20:50.884Z,1.63
2022-08-24T16:24:18.889Z,1.50
2022-08-24T16:28:01.624Z,1.45
2022-08-24T16:31:43.266Z,1.50
2022-08-24T16:35:07.682Z,1.48
2022-08-24T16:38:31.273Z,1.42
2022-08-24T16:41:57.195Z,1.30
2022-08-24T16:45:21.841Z,1.45
2022-08-24T16:48:43.534Z,1.38
2022-08-24T16:52:05.729Z,1.30
2022-08-24T16:55:28.404Z,1.40
2022-08-24T16:58:51.158Z,1.50
2022-08-24T17:02:13.205Z,1.40
2022-08-24T17:05:35.353Z,1.17
2022-08-24T17:08:58.305Z,1.40
2022-08-24T17:12:20.716Z,1.45
2022-08-24T17:15:42.815Z,1.42
2022-08-24T17:19:12.055Z,1.80
2022-08-24T17:22:34.040Z,1.40
2022-08-24T17:25:55.806Z,1.40
2022-08-24T17:29:19.806Z,1.50
2022-08-24T17:32:41.588Z,1.50
2022-08-24T17:36:05.284Z,1.50
2022-08-24T17:39:27.679Z,1.67
2022-08-24T17:42:51.485Z,1.85
2022-08-24T17:46:14.825Z,1.65
2022-08-24T17:49:36.698Z,1.67
2022-08-24T17:53:00.256Z,1.67
2022-08-24T17:56:22.591Z,1.70
2022-08-24T17:59:45.133Z,2.00
2022-08-24T18:03:07.291Z,1.60
2022-08-24T18:06:29.079Z,1.63
2022-08-24T18:09:58.166Z,2.00
2022-08-24T18:13:20.195Z,1.80
2022-08-24T18:16:42.140Z,1.77
2022-08-24T18:20:06.912Z,2.10
2022-08-24T18:23:28.765Z,2.20
2022-08-24T18:26:50.759Z,2.13
2022-08-24T18:30:30.649Z,2.28
2022-08-24T18:33:53.765Z,2.17
2022-08-24T18:37:15.629Z,2.60
2022-08-24T18:40:37.861Z,2.22
2022-08-24T18:44:00.208Z,2.65
2022-08-24T18:47:22.019Z,2.88
2022-08-24T18:50:43.791Z,2.60
2022-08-24T18:54:10.661Z,2.25
2022-08-24T18:57:32.643Z,2.47
2022-08-24T19:00:54.520Z,2.42
2022-08-24T19:04:16.519Z,2.25
2022-08-24T19:07:42.486Z,2.08
2022-08-24T19:11:05.895Z,2.10
2022-08-24T19:14:28.344Z,2.05
2022-08-24T19:17:50.067Z,2.28
2022-08-24T19:21:11.901Z,2.08
2022-08-24T19:24:33.661Z,1.58
2022-08-24T19:27:55.866Z,2.10
2022-08-24T19:31:22.013Z,2.38
2022-08-24T19:34:43.983Z,2.25
2022-08-24T19:38:05.809Z,2.70
2022-08-24T19:41:36.539Z,2.72
2022-08-24T19:45:19.034Z,3.42
2022-08-24T19:48:40.864Z,2.42
2022-08-24T19:52:03.935Z,2.70
2022-08-24T19:55:26.348Z,2.95
2022-08-24T19:58:58.627Z,3.15
2022-08-24T20:02:20.407Z,3.00
2022-08-24T20:05:42.417Z,2.90
2022-08-24T20:09:05.229Z,3.08
2022-08-24T20:12:27.855Z,3.05
2022-08-24T20:15:49.706Z,2.75
2022-08-24T20:19:12.393Z,2.70
2022-08-24T20:22:34.872Z,2.90
2022-08-24T20:25:58.944Z,2.47
2022-08-24T20:29:20.915Z,2.80
2022-08-24T20:32:42.923Z,2.55
2022-08-24T20:36:05.341Z,3.05
2022-08-24T20:39:30.849Z,2.47
2022-08-24T20:42:52.671Z,2.60
2022-08-24T20:46:15.464Z,2.80
2022-08-24T20:49:39.112Z,2.60
2022-08-24T20:53:00.844Z,2.65
2022-08-24T20:56:31.169Z,3.00
2022-08-24T20:59:53.340Z,3.10
2022-08-24T21:03:16.124Z,3.10
2022-08-24T21:06:40.802Z,2.60
2022-08-24T21:10:03.110Z,3.05
2022-08-24T21:13:24.890Z,2.83
2022-08-24T21:16:47.111Z,2.83
2022-08-24T21:20:10.742Z,3.10
2022-08-24T21:23:34.503Z,2.97
2022-08-24T21:26:57.571Z,3.35
2022-08-24T21:30:21.934Z,3.13
2022-08-24T21:34:02.457Z,2.60
2022-08-24T21:37:24.482Z,2.90
2022-08-24T21:40:46.976Z,2.33
2022-08-24T21:44:08.724Z,2.85
2022-08-24T21:47:30.600Z,3.00
2022-08-24T21:50:52.693Z,3.00
2022-08-24T21:54:14.423Z,2.90
2022-08-24T21:57:36.202Z,2.80
2022-08-24T22:00:59.305Z,2.40
2022-08-24T22:04:21.634Z,3.00
2022-08-24T22:07:44.509Z,3.20
2022-08-24T22:11:06.783Z,2.67
2022-08-24T22:14:28.747Z,3.10
2022-08-24T22:17:52.704Z,3.03
2022-08-24T22:21:18.723Z,2.67
2022-08-24T22:24:40.387Z,2.90
2022-08-24T22:28:02.232Z,3.38
2022-08-24T22:31:31.236Z,3.30
2022-08-24T22:34:53.082Z,3.05
2022-08-24T22:38:14.954Z,2.80
2022-08-24T22:41:40.329Z,3.05
2022-08-24T22:45:02.130Z,3.08
2022-08-24T22:48:23.891Z,3.00
2022-08-24T22:51:49.199Z,2.22
2022-08-24T22:55:11.281Z,2.97
2022-08-24T22:58:35.162Z,2.80
2022-08-24T23:01:57.886Z,3.08
2022-08-24T23:05:19.841Z,3.40
2022-08-24T23:08:41.855Z,2.80
2022-08-24T23:12:07.601Z,2.67
2022-08-24T23:15:29.870Z,2.83
2022-08-24T23:19:10.579Z,2.55
2022-08-24T23:22:39.419Z,2.83
2022-08-24T23:26:04.388Z,3.03
2022-08-24T23:29:26.233Z,2.70
2022-08-24T23:32:49.067Z,3.00
2022-08-24T23:36:17.000Z,2.95
2022-08-24T23:39:38.795Z,3.33
2022-08-24T23:43:00.539Z,2.58
2022-08-24T23:46:23.083Z,3.03
2022-08-24T23:49:44.957Z,2.58
2022-08-24T23:53:06.706Z,2.90
2022-08-24T23:56:32.082Z,2.80
2022-08-24T23:59:53.951Z,3.30
